| Date | Time | Temp. (oF) | Dew Point (oF) | Rel. Hum. (%) | Press. (in.) | Wind Dir. | Wind Speed (mph) | Hourly Rainfall (in.) |
|
|---|---|---|---|---|---|---|---|---|---|
| 1 | 01/30 | 00:00 | 25 | 23 | 94 | 30.21 | SSE | 0 | 0.00 |
| 2 | 01/29 | 23:00 | 25 | 22 | 91 | 30.24 | SSW | 1 | 0.00 |
| 3 | 01/29 | 22:00 | 26 | 21 | 83 | 30.25 | S | 3 | 0.00 |
| 4 | 01/29 | 21:00 | 26 | 17 | 69 | 30.27 | SSW | 3 | 0.00 |
| 5 | 01/29 | 20:00 | 26 | 14 | 62 | 30.29 | S | 4 | 0.00 |
| 6 | 01/29 | 19:00 | 26 | 13 | 58 | 30.32 | SSE | 7 | 0.00 |
| 7 | 01/29 | 18:00 | 27 | 13 | 57 | 30.34 | S | 8 | 0.00 |
| 8 | 01/29 | 17:00 | 28 | 11 | 50 | 30.34 | S | 4 | 0.00 |
| 9 | 01/29 | 16:00 | 29 | 9 | 43 | 30.35 | SE | 5 | 0.00 |
| 10 | 01/29 | 15:00 | 30 | 9 | 41 | 30.38 | S | 6 | 0.00 |
| 11 | 01/29 | 14:00 | 31 | 8 | 38 | 30.41 | S | 6 | 0.00 |
| 12 | 01/29 | 13:00 | 29 | 10 | 46 | 30.45 | SSW | 9 | 0.00 |
| 13 | 01/29 | 12:00 | 23 | 10 | 57 | 30.50 | SSW | 3 | 0.00 |
| 14 | miss | miss | miss | miss | miss | miss | miss | miss | |
| 15 | 01/29 | 11:47 | 22 | 9 | 59 | 30.51 | S | 3 | 0.00 |
| 16 | miss | miss | miss | miss | miss | miss | miss | miss | |
| 17 | 01/29 | 11:45 | 22 | 9 | 59 | 30.51 | S | 5 | 0.00 |
| 18 | miss | miss | miss | miss | miss | miss | miss | miss | |
| 19 | 01/29 | 11:43 | 22 | 9 | 59 | 30.51 | S | 2 | 0.00 |
| 20 | miss | miss | miss | miss | miss | miss | miss | miss | |
| 21 | 01/29 | 11:41 | 22 | 9 | 59 | 30.51 | SSE | 3 | 0.00 |
| 22 | miss | miss | miss | miss | miss | miss | miss | miss | |
| 23 | 01/29 | 11:39 | 22 | 10 | 60 | 30.52 | S | 4 | 0.00 |
| 24 | miss | miss | miss | miss | miss | miss | miss | miss | |
| 25 | 01/29 | 11:37 | 21 | 9 | 60 | 30.52 | S | 2 | 0.00 |
| 26 | miss | miss | miss | miss | miss | miss | miss | miss | |
| 27 | 01/29 | 11:37 | 21 | 9 | 60 | 30.52 | S | 2 | 0.00 |
| 28 | miss | miss | miss | miss | miss | miss | miss | miss | |
| 29 | 01/29 | 11:37 | 21 | 9 | 60 | 30.52 | S | 2 | 0.00 |
| 30 | miss | miss | miss | miss | miss | miss | miss | miss | |
| 31 | 01/29 | 11:37 | 21 | 9 | 60 | 30.52 | S | 2 | 0.00 |
| 32 | miss | miss | miss | miss | miss | miss | miss | miss | |
| 33 | 01/29 | 11:37 | 21 | 9 | 60 | 30.52 | S | 2 | 0.00 |
| 34 | miss | miss | miss | miss | miss | miss | miss | miss | |
| 35 | 01/29 | 11:37 | 21 | 9 | 60 | 30.52 | S | 2 | 0.00 |
| 36 | miss | miss | miss | miss | miss | miss | miss | miss | |
| 37 | 01/29 | 11:37 | 21 | 9 | 60 | 30.52 | S | 2 | 0.00 |
| 38 | 01/29 | 11:00 | 19 | 13 | 80 | 30.54 | NNE | 1 | 0.00 |
| 39 | 01/29 | 10:00 | 13 | 12 | 96 | 30.57 | ESE | 0 | 0.00 |
| 40 | 01/29 | 09:00 | 6 | 5 | 96 | 30.60 | NE | 2 | 0.00 |
| 41 | 01/29 | 08:00 | 1 | 0 | 96 | 30.61 | NE | 0 | 0.00 |
| 42 | 01/29 | 07:00 | 1 | 0 | 95 | 30.63 | NW | 1 | 0.00 |
| 43 | 01/29 | 06:00 | 1 | 0 | 94 | 30.64 | NW | 0 | 0.00 |
| 44 | 01/29 | 05:00 | 2 | 0 | 94 | 30.65 | NNW | 1 | 0.00 |
| 45 | 01/29 | 04:00 | 2 | 0 | 93 | 30.66 | SSW | 0 | 0.00 |
| 46 | 01/29 | 03:00 | 3 | 1 | 92 | 30.68 | SSW | 1 | 0.00 |
| 47 | 01/29 | 02:00 | 4 | 1 | 90 | 30.69 | SSW | 1 | 0.00 |
| 48 | 01/29 | 01:00 | 5 | 2 | 89 | 30.70 | SSW | 0 | 0.00 |
| 49 | 01/29 | 00:00 | 6 | 2 | 87 | 30.71 | SSW | 1 | 0.00 |
| 50 | 01/28 | 23:00 | 7 | 3 | 84 | 30.73 | SSW | 0 | 0.00 |
| 51 | 01/28 | 22:00 | 9 | 4 | 81 | 30.74 | SSW | 0 | 0.00 |
| 52 | 01/28 | 21:00 | 11 | 4 | 75 | 30.76 | SSW | 1 | 0.00 |
| 53 | 01/28 | 20:00 | 14 | 3 | 63 | 30.77 | SW | 0 | 0.00 |
| 54 | 01/28 | 19:00 | 17 | 4 | 57 | 30.77 | SSW | 2 | 0.00 |
| 55 | 01/28 | 18:00 | 19 | 4 | 53 | 30.77 | SSW | 3 | 0.00 |
| 56 | 01/28 | 17:00 | 22 | 5 | 49 | 30.75 | WSW | 1 | 0.00 |
| 57 | 01/28 | 16:00 | 23 | 5 | 46 | 30.74 | W | 2 | 0.00 |
| 58 | 01/28 | 15:00 | 22 | 6 | 50 | 30.75 | NW | 2 | 0.00 |
| 59 | 01/28 | 14:00 | 20 | 5 | 52 | 30.76 | NW | 3 | 0.00 |
| 60 | 01/28 | 13:00 | 18 | 5 | 57 | 30.79 | N | 4 | 0.00 |
| 61 | 01/28 | 12:00 | 16 | 4 | 60 | 30.82 | WNW | 9 | 0.00 |
| 62 | 01/28 | 11:00 | 13 | 2 | 63 | 30.85 | SW | 1 | 0.00 |
| 63 | 01/28 | 10:00 | 11 | 2 | 67 | 30.85 | NNW | 5 | 0.00 |
| 64 | 01/28 | 09:00 | 6 | 0 | 74 | 30.85 | NW | 4 | 0.00 |
| 65 | 01/28 | 08:00 | 2 | -2 | 80 | 30.84 | WNW | 3 | 0.00 |
| 66 | 01/28 | 07:00 | 1 | -4 | 78 | 30.83 | WSW | 2 | 0.00 |
| 67 | 01/28 | 06:00 | 2 | -4 | 75 | 30.80 | NW | 3 | 0.00 |
| 68 | 01/28 | 05:00 | 3 | -4 | 71 | 30.78 | NW | 5 | 0.00 |
| 69 | 01/28 | 04:00 | 4 | -4 | 66 | 30.77 | WNW | 1 | 0.00 |
| 70 | 01/28 | 03:00 | 5 | -4 | 65 | 30.76 | NW | 3 | 0.00 |
| 71 | miss | miss | miss | miss | miss | miss | miss | miss | |
| 72 | 01/28 | 02:22 | 5 | -4 | 63 | 30.75 | NNW | 10 | 0.00 |
| 73 | miss | miss | miss | miss | miss | miss | miss | miss | |
| 74 | 01/28 | 02:21 | 5 | -5 | 62 | 30.75 | NW | 11 | 0.00 |
| 75 | miss | miss | miss | miss | miss | miss | miss | miss | |
| 76 | 01/28 | 02:21 | 5 | -5 | 62 | 30.75 | NW | 11 | 0.00 |
| 77 | miss | miss | miss | miss | miss | miss | miss | miss | |
| 78 | 01/28 | 02:21 | 5 | -5 | 62 | 30.75 | NW | 11 | 0.00 |
| 79 | miss | miss | miss | miss | miss | miss | miss | miss | |
| 80 | 01/28 | 02:21 | 5 | -5 | 62 | 30.75 | NW | 11 | 0.00 |
| 81 | miss | miss | miss | miss | miss | miss | miss | miss | |
| 82 | 01/28 | 02:21 | 5 | -5 | 62 | 30.75 | NW | 11 | 0.00 |
| 83 | miss | miss | miss | miss | miss | miss | miss | miss | |
| 84 | 01/28 | 02:21 | 5 | -5 | 62 | 30.75 | NW | 11 | 0.00 |
| 85 | miss | miss | miss | miss | miss | miss | miss | miss | |
| 86 | 01/28 | 02:21 | 5 | -5 | 62 | 30.75 | NW | 11 | 0.00 |
| 87 | miss | miss | miss | miss | miss | miss | miss | miss | |
| 88 | 01/28 | 02:21 | 5 | -5 | 62 | 30.75 | NW | 11 | 0.00 |
| 89 | miss | miss | miss | miss | miss | miss | miss | miss | |
| 90 | 01/28 | 02:21 | 5 | -5 | 62 | 30.75 | NW | 11 | 0.00 |
| 91 | miss | miss | miss | miss | miss | miss | miss | miss | |
| 92 | 01/28 | 02:21 | 5 | -5 | 62 | 30.75 | NW | 11 | 0.00 |
| 93 | miss | miss | miss | miss | miss | miss | miss | miss | |
| 94 | 01/28 | 02:21 | 5 | -5 | 62 | 30.75 | NW | 11 | 0.00 |
| 95 | 01/28 | 02:00 | 5 | -5 | 61 | 30.74 | NNW | 4 | 0.00 |
| 96 | 01/28 | 01:00 | 7 | -5 | 57 | 30.73 | NW | 2 | 0.00 |
| 97 | 01/28 | 00:00 | 7 | -6 | 54 | 30.72 | NNW | 4 | 0.00 |